sensor_id;sensor_type;location;lat;lon;timestamp;pressure;altitude;pressure_sealevel;temperature
14023;BMP180;7086;48.116;11.580;2023-01-05T00:09:11;95726.00;;;14.50
14023;BMP180;7086;48.116;11.580;2023-01-05T00:12:36;95777.00;;;14.80
14023;BMP180;7086;48.116;11.580;2023-01-05T00:15:47;95717.00;;;14.70
14023;BMP180;7086;48.116;11.580;2023-01-05T00:57:10;95719.00;;;15.00
14023;BMP180;7086;48.116;11.580;2023-01-05T01:01:44;95729.00;;;14.80
14023;BMP180;7086;48.116;11.580;2023-01-05T01:03:28;95700.00;;;15.00
14023;BMP180;7086;48.116;11.580;2023-01-05T01:10:29;95693.00;;;15.10
14023;BMP180;7086;48.116;11.580;2023-01-05T01:13:13;95627.00;;;15.20
14023;BMP180;7086;48.116;11.580;2023-01-05T01:16:11;95724.00;;;15.20
14023;BMP180;7086;48.116;11.580;2023-01-05T01:18:56;95720.00;;;15.20
14023;BMP180;7086;48.116;11.580;2023-01-05T01:21:38;95655.00;;;15.20
14023;BMP180;7086;48.116;11.580;2023-01-05T01:40:04;95612.00;;;15.10
14023;BMP180;7086;48.116;11.580;2023-01-05T01:59:54;95704.00;;;15.10
14023;BMP180;7086;48.116;11.580;2023-01-05T02:11:21;95566.00;;;15.00
14023;BMP180;7086;48.116;11.580;2023-01-05T02:15:09;95680.00;;;15.00
14023;BMP180;7086;48.116;11.580;2023-01-05T02:22:08;95554.00;;;15.10
14023;BMP180;7086;48.116;11.580;2023-01-05T02:26:07;95589.00;;;15.00
14023;BMP180;7086;48.116;11.580;2023-01-05T02:43:59;95512.00;;;15.00
14023;BMP180;7086;48.116;11.580;2023-01-05T02:47:06;95624.00;;;15.20
14023;BMP180;7086;48.116;11.580;2023-01-05T02:50:14;95554.00;;;14.80
14023;BMP180;7086;48.116;11.580;2023-01-05T02:53:26;95600.00;;;15.00
14023;BMP180;7086;48.116;11.580;2023-01-05T02:56:10;95599.00;;;15.10
14023;BMP180;7086;48.116;11.580;2023-01-05T02:58:53;95628.00;;;14.90
14023;BMP180;7086;48.116;11.580;2023-01-05T03:01:43;95553.00;;;15.10
14023;BMP180;7086;48.116;11.580;2023-01-05T03:05:08;95630.00;;;14.60
14023;BMP180;7086;48.116;11.580;2023-01-05T03:08:05;95539.00;;;15.00
14023;BMP180;7086;48.116;11.580;2023-01-05T03:11:01;95613.00;;;14.90
14023;BMP180;7086;48.116;11.580;2023-01-05T03:14:05;95573.00;;;14.80
14023;BMP180;7086;48.116;11.580;2023-01-05T03:17:01;95613.00;;;14.80
14023;BMP180;7086;48.116;11.580;2023-01-05T03:19:48;95514.00;;;14.80
14023;BMP180;7086;48.116;11.580;2023-01-05T03:22:27;95515.00;;;14.70
14023;BMP180;7086;48.116;11.580;2023-01-05T03:25:37;95516.00;;;14.70
14023;BMP180;7086;48.116;11.580;2023-01-05T03:28:40;95613.00;;;14.60
14023;BMP180;7086;48.116;11.580;2023-01-05T03:31:48;95578.00;;;14.40
14023;BMP180;7086;48.116;11.580;2023-01-05T03:37:42;95555.00;;;14.30
14023;BMP180;7086;48.116;11.580;2023-01-05T03:40:28;95604.00;;;14.40
14023;BMP180;7086;48.116;11.580;2023-01-05T03:47:45;95589.00;;;14.50
14023;BMP180;7086;48.116;11.580;2023-01-05T04:01:56;95605.00;;;14.60
14023;BMP180;7086;48.116;11.580;2023-01-05T04:05:01;95576.00;;;14.50
14023;BMP180;7086;48.116;11.580;2023-01-05T04:08:19;95521.00;;;14.70
14023;BMP180;7086;48.116;11.580;2023-01-05T04:11:30;95501.00;;;14.70
14023;BMP180;7086;48.116;11.580;2023-01-05T04:14:47;95463.00;;;14.70
14023;BMP180;7086;48.116;11.580;2023-01-05T04:17:27;95478.00;;;14.70
14023;BMP180;7086;48.116;11.580;2023-01-05T04:20:16;95550.00;;;14.80
14023;BMP180;7086;48.116;11.580;2023-01-05T04:23:45;95559.00;;;14.90
14023;BMP180;7086;48.116;11.580;2023-01-05T04:27:10;95576.00;;;14.50
14023;BMP180;7086;48.116;11.580;2023-01-05T04:34:36;95592.00;;;15.00
14023;BMP180;7086;48.116;11.580;2023-01-05T05:02:53;95576.00;;;15.20
14023;BMP180;7086;48.116;11.580;2023-01-05T05:05:45;95573.00;;;15.30
14023;BMP180;7086;48.116;11.580;2023-01-05T05:08:42;95495.00;;;14.80
14023;BMP180;7086;48.116;11.580;2023-01-05T05:11:39;95570.00;;;15.30
14023;BMP180;7086;48.116;11.580;2023-01-05T05:25:32;95521.00;;;15.40
14023;BMP180;7086;48.116;11.580;2023-01-05T05:33:02;95570.00;;;15.30
14023;BMP180;7086;48.116;11.580;2023-01-05T06:51:48;95623.00;;;15.40
14023;BMP180;7086;48.116;11.580;2023-01-05T06:54:29;95630.00;;;15.30
14023;BMP180;7086;48.116;11.580;2023-01-05T06:56:59;95641.00;;;15.40
14023;BMP180;7086;48.116;11.580;2023-01-05T06:59:29;95637.00;;;15.30
14023;BMP180;7086;48.116;11.580;2023-01-05T07:01:57;95631.00;;;15.30
14023;BMP180;7086;48.116;11.580;2023-01-05T07:04:27;95640.00;;;15.30
14023;BMP180;7086;48.116;11.580;2023-01-05T07:07:04;95666.00;;;15.30
14023;BMP180;7086;48.116;11.580;2023-01-05T07:09:33;95654.00;;;15.30
14023;BMP180;7086;48.116;11.580;2023-01-05T07:12:02;95626.00;;;15.20
14023;BMP180;7086;48.116;11.580;2023-01-05T07:14:47;95646.00;;;15.20
14023;BMP180;7086;48.116;11.580;2023-01-05T07:17:29;95578.00;;;15.30
14023;BMP180;7086;48.116;11.580;2023-01-05T07:19:58;95648.00;;;15.30
14023;BMP180;7086;48.116;11.580;2023-01-05T07:22:29;95613.00;;;15.30
14023;BMP180;7086;48.116;11.580;2023-01-05T07:24:59;95565.00;;;15.30
14023;BMP180;7086;48.116;11.580;2023-01-05T07:27:41;95653.00;;;15.30
14023;BMP180;7086;48.116;11.580;2023-01-05T07:30:19;95611.00;;;15.30
14023;BMP180;7086;48.116;11.580;2023-01-05T07:33:07;95594.00;;;15.30
14023;BMP180;7086;48.116;11.580;2023-01-05T07:35:36;95678.00;;;15.30
14023;BMP180;7086;48.116;11.580;2023-01-05T07:45:16;95638.00;;;15.40
14023;BMP180;7086;48.116;11.580;2023-01-05T07:50:33;95681.00;;;15.40
14023;BMP180;7086;48.116;11.580;2023-01-05T07:53:02;95689.00;;;15.40
14023;BMP180;7086;48.116;11.580;2023-01-05T07:55:34;95685.00;;;15.40
14023;BMP180;7086;48.116;11.580;2023-01-05T07:58:04;95679.00;;;15.40
14023;BMP180;7086;48.116;11.580;2023-01-05T08:00:35;95698.00;;;15.50
14023;BMP180;7086;48.116;11.580;2023-01-05T08:08:07;95599.00;;;15.50
14023;BMP180;7086;48.116;11.580;2023-01-05T08:10:38;95703.00;;;15.50
14023;BMP180;7086;48.116;11.580;2023-01-05T08:13:08;95698.00;;;15.50
14023;BMP180;7086;48.116;11.580;2023-01-05T08:15:57;95651.00;;;15.50
14023;BMP180;7086;48.116;11.580;2023-01-05T08:18:39;95683.00;;;15.60
14023;BMP180;7086;48.116;11.580;2023-01-05T08:21:13;95693.00;;;15.60
14023;BMP180;7086;48.116;11.580;2023-01-05T08:23:56;95663.00;;;15.60
14023;BMP180;7086;48.116;11.580;2023-01-05T08:26:26;95735.00;;;15.60
14023;BMP180;7086;48.116;11.580;2023-01-05T08:29:02;95731.00;;;15.60
14023;BMP180;7086;48.116;11.580;2023-01-05T08:41:39;95720.00;;;15.50
14023;BMP180;7086;48.116;11.580;2023-01-05T08:44:15;95764.00;;;15.40
14023;BMP180;7086;48.116;11.580;2023-01-05T08:46:47;95667.00;;;15.50
14023;BMP180;7086;48.116;11.580;2023-01-05T08:49:15;95749.00;;;15.50
14023;BMP180;7086;48.116;11.580;2023-01-05T08:51:58;95739.00;;;15.50
14023;BMP180;7086;48.116;11.580;2023-01-05T08:54:28;95760.00;;;15.40
14023;BMP180;7086;48.116;11.580;2023-01-05T08:57:07;95737.00;;;15.40
14023;BMP180;7086;48.116;11.580;2023-01-05T08:59:36;95748.00;;;15.40
14023;BMP180;7086;48.116;11.580;2023-01-05T09:02:10;95740.00;;;15.40
14023;BMP180;7086;48.116;11.580;2023-01-05T09:04:40;95774.00;;;15.40
14023;BMP180;7086;48.116;11.580;2023-01-05T09:07:10;95765.00;;;15.30
14023;BMP180;7086;48.116;11.580;2023-01-05T09:09:40;95704.00;;;15.40
14023;BMP180;7086;48.116;11.580;2023-01-05T09:12:33;95750.00;;;15.40
14023;BMP180;7086;48.116;11.580;2023-01-05T09:15:06;95772.00;;;15.40
14023;BMP180;7086;48.116;11.580;2023-01-05T09:17:48;95706.00;;;15.50
14023;BMP180;7086;48.116;11.580;2023-01-05T09:20:21;95775.00;;;15.60
14023;BMP180;7086;48.116;11.580;2023-01-05T09:22:53;95756.00;;;15.60
14023;BMP180;7086;48.116;11.580;2023-01-05T09:25:22;95742.00;;;15.70
14023;BMP180;7086;48.116;11.580;2023-01-05T09:27:53;95730.00;;;15.70
14023;BMP180;7086;48.116;11.580;2023-01-05T09:30:35;95787.00;;;15.70
14023;BMP180;7086;48.116;11.580;2023-01-05T09:33:17;95769.00;;;15.80
14023;BMP180;7086;48.116;11.580;2023-01-05T09:36:00;95804.00;;;15.70
14023;BMP180;7086;48.116;11.580;2023-01-05T09:38:47;95776.00;;;15.80
14023;BMP180;7086;48.116;11.580;2023-01-05T09:41:23;95807.00;;;15.80
14023;BMP180;7086;48.116;11.580;2023-01-05T09:47:39;95812.00;;;15.50
14023;BMP180;7086;48.116;11.580;2023-01-05T09:50:24;95761.00;;;15.90
14023;BMP180;7086;48.116;11.580;2023-01-05T09:53:01;95757.00;;;16.00
14023;BMP180;7086;48.116;11.580;2023-01-05T09:55:46;95791.00;;;16.00
14023;BMP180;7086;48.116;11.580;2023-01-05T09:58:21;95797.00;;;16.00
14023;BMP180;7086;48.116;11.580;2023-01-05T10:01:17;95780.00;;;15.90
14023;BMP180;7086;48.116;11.580;2023-01-05T10:04:37;95709.00;;;16.00
14023;BMP180;7086;48.116;11.580;2023-01-05T10:07:31;95703.00;;;16.00
14023;BMP180;7086;48.116;11.580;2023-01-05T10:10:48;95800.00;;;16.10
14023;BMP180;7086;48.116;11.580;2023-01-05T10:13:33;95795.00;;;16.10
14023;BMP180;7086;48.116;11.580;2023-01-05T10:16:17;95794.00;;;16.20
14023;BMP180;7086;48.116;11.580;2023-01-05T10:18:59;95729.00;;;16.20
14023;BMP180;7086;48.116;11.580;2023-01-05T10:21:58;95804.00;;;16.20
14023;BMP180;7086;48.116;11.580;2023-01-05T10:24:49;95781.00;;;16.30
14023;BMP180;7086;48.116;11.580;2023-01-05T10:27:48;95827.00;;;16.30
14023;BMP180;7086;48.116;11.580;2023-01-05T10:31:00;95812.00;;;16.40
14023;BMP180;7086;48.116;11.580;2023-01-05T10:34:05;95833.00;;;16.40
14023;BMP180;7086;48.116;11.580;2023-01-05T10:50:55;95824.00;;;16.50
14023;BMP180;7086;48.116;11.580;2023-01-05T10:54:01;95834.00;;;16.50
14023;BMP180;7086;48.116;11.580;2023-01-05T10:57:49;95781.00;;;16.50
14023;BMP180;7086;48.116;11.580;2023-01-05T11:04:16;95716.00;;;16.60
14023;BMP180;7086;48.116;11.580;2023-01-05T11:34:24;95752.00;;;16.70
14023;BMP180;7086;48.116;11.580;2023-01-05T11:42:37;95828.00;;;16.30
14023;BMP180;7086;48.116;11.580;2023-01-05T11:48:07;95829.00;;;16.00
14023;BMP180;7086;48.116;11.580;2023-01-05T11:53:49;95811.00;;;15.70
14023;BMP180;7086;48.116;11.580;2023-01-05T11:56:33;95822.00;;;15.70
14023;BMP180;7086;48.116;11.580;2023-01-05T11:59:47;95812.00;;;15.60
14023;BMP180;7086;48.116;11.580;2023-01-05T12:06:34;95811.00;;;15.60
14023;BMP180;7086;48.116;11.580;2023-01-05T12:09:43;95693.00;;;15.60
14023;BMP180;7086;48.116;11.580;2023-01-05T12:12:59;95725.00;;;15.60
14023;BMP180;7086;48.116;11.580;2023-01-05T12:21:03;95817.00;;;15.70
14023;BMP180;7086;48.116;11.580;2023-01-05T12:24:04;95816.00;;;15.70
14023;BMP180;7086;48.116;11.580;2023-01-05T12:53:36;95723.00;;;16.30
14023;BMP180;7086;48.116;11.580;2023-01-05T13:04:31;95821.00;;;16.30
14023;BMP180;7086;48.116;11.580;2023-01-05T13:07:41;95773.00;;;16.30
14023;BMP180;7086;48.116;11.580;2023-01-05T13:24:31;95827.00;;;16.30
14023;BMP180;7086;48.116;11.580;2023-01-05T13:27:03;95823.00;;;16.30
14023;BMP180;7086;48.116;11.580;2023-01-05T13:30:10;95825.00;;;16.30
14023;BMP180;7086;48.116;11.580;2023-01-05T13:33:23;95825.00;;;16.10
14023;BMP180;7086;48.116;11.580;2023-01-05T13:36:24;95822.00;;;16.20
14023;BMP180;7086;48.116;11.580;2023-01-05T13:43:15;95768.00;;;16.10
14023;BMP180;7086;48.116;11.580;2023-01-05T13:51:50;95836.00;;;16.00
14023;BMP180;7086;48.116;11.580;2023-01-05T13:54:46;95827.00;;;15.90
14023;BMP180;7086;48.116;11.580;2023-01-05T14:04:25;95827.00;;;15.70
14023;BMP180;7086;48.116;11.580;2023-01-05T14:07:17;95859.00;;;15.90
14023;BMP180;7086;48.116;11.580;2023-01-05T14:10:04;95774.00;;;15.90
14023;BMP180;7086;48.116;11.580;2023-01-05T14:20:39;95833.00;;;15.70
14023;BMP180;7086;48.116;11.580;2023-01-05T14:23:56;95862.00;;;15.70
14023;BMP180;7086;48.116;11.580;2023-01-05T14:31:50;95879.00;;;15.70
14023;BMP180;7086;48.116;11.580;2023-01-05T14:34:32;95868.00;;;15.70
14023;BMP180;7086;48.116;11.580;2023-01-05T14:37:38;95770.00;;;15.70
14023;BMP180;7086;48.116;11.580;2023-01-05T16:23:14;95897.00;;;14.90
14023;BMP180;7086;48.116;11.580;2023-01-05T16:25:59;95899.00;;;14.90
14023;BMP180;7086;48.116;11.580;2023-01-05T16:28:29;95953.00;;;14.90
14023;BMP180;7086;48.116;11.580;2023-01-05T16:31:26;95954.00;;;14.80
14023;BMP180;7086;48.116;11.580;2023-01-05T16:34:18;95960.00;;;14.70
14023;BMP180;7086;48.116;11.580;2023-01-05T16:37:16;95961.00;;;14.70
14023;BMP180;7086;48.116;11.580;2023-01-05T16:57:42;95854.00;;;14.10
14023;BMP180;7086;48.116;11.580;2023-01-05T17:00:36;95963.00;;;14.10
14023;BMP180;7086;48.116;11.580;2023-01-05T17:03:28;95891.00;;;14.00
14023;BMP180;7086;48.116;11.580;2023-01-05T17:05:59;95951.00;;;14.00
14023;BMP180;7086;48.116;11.580;2023-01-05T17:08:42;95957.00;;;14.00
14023;BMP180;7086;48.116;11.580;2023-01-05T17:11:29;95900.00;;;14.00
14023;BMP180;7086;48.116;11.580;2023-01-05T18:04:09;95980.00;;;13.90
14023;BMP180;7086;48.116;11.580;2023-01-05T18:06:41;95934.00;;;13.90
14023;BMP180;7086;48.116;11.580;2023-01-05T18:09:27;95986.00;;;13.90
14023;BMP180;7086;48.116;11.580;2023-01-05T18:12:42;95914.00;;;13.90
14023;BMP180;7086;48.116;11.580;2023-01-05T18:18:40;95989.00;;;13.90
14023;BMP180;7086;48.116;11.580;2023-01-05T18:21:44;95993.00;;;14.00
14023;BMP180;7086;48.116;11.580;2023-01-05T18:24:28;95989.00;;;14.00
14023;BMP180;7086;48.116;11.580;2023-01-05T18:27:14;95926.00;;;13.60
14023;BMP180;7086;48.116;11.580;2023-01-05T18:30:20;95999.00;;;14.00
14023;BMP180;7086;48.116;11.580;2023-01-05T18:33:02;95934.00;;;13.60
14023;BMP180;7086;48.116;11.580;2023-01-05T18:35:44;95995.00;;;14.00
14023;BMP180;7086;48.116;11.580;2023-01-05T18:42:09;95910.00;;;14.00
14023;BMP180;7086;48.116;11.580;2023-01-05T18:44:46;95995.00;;;14.00
14023;BMP180;7086;48.116;11.580;2023-01-05T18:50:08;95963.00;;;14.00
14023;BMP180;7086;48.116;11.580;2023-01-05T18:52:49;95991.00;;;14.00
14023;BMP180;7086;48.116;11.580;2023-01-05T18:55:25;96011.00;;;14.00
14023;BMP180;7086;48.116;11.580;2023-01-05T18:57:57;95946.00;;;14.00
14023;BMP180;7086;48.116;11.580;2023-01-05T19:00:25;95971.00;;;13.90
14023;BMP180;7086;48.116;11.580;2023-01-05T19:03:09;95941.00;;;14.00
14023;BMP180;7086;48.116;11.580;2023-01-05T19:05:43;95977.00;;;14.00
14023;BMP180;7086;48.116;11.580;2023-01-05T19:08:25;95989.00;;;14.00
14023;BMP180;7086;48.116;11.580;2023-01-05T19:11:12;95890.00;;;14.00
14023;BMP180;7086;48.116;11.580;2023-01-05T19:17:21;95926.00;;;14.00
14023;BMP180;7086;48.116;11.580;2023-01-05T19:20:13;95866.00;;;14.10
14023;BMP180;7086;48.116;11.580;2023-01-05T19:22:42;95996.00;;;14.10
14023;BMP180;7086;48.116;11.580;2023-01-05T19:25:11;95982.00;;;14.10
14023;BMP180;7086;48.116;11.580;2023-01-05T19:27:54;96016.00;;;14.10
14023;BMP180;7086;48.116;11.580;2023-01-05T19:30:38;95994.00;;;14.10
14023;BMP180;7086;48.116;11.580;2023-01-05T19:33:27;95912.00;;;13.70
14023;BMP180;7086;48.116;11.580;2023-01-05T19:36:02;96013.00;;;14.10
14023;BMP180;7086;48.116;11.580;2023-01-05T19:38:44;95998.00;;;14.10
14023;BMP180;7086;48.116;11.580;2023-01-05T19:41:19;96012.00;;;14.00
14023;BMP180;7086;48.116;11.580;2023-01-05T19:43:53;95886.00;;;14.10
14023;BMP180;7086;48.116;11.580;2023-01-05T19:46:35;95922.00;;;14.10
14023;BMP180;7086;48.116;11.580;2023-01-05T19:52:59;96007.00;;;14.10
14023;BMP180;7086;48.116;11.580;2023-01-05T19:55:31;96005.00;;;14.10
14023;BMP180;7086;48.116;11.580;2023-01-05T19:58:00;95980.00;;;14.10
14023;BMP180;7086;48.116;11.580;2023-01-05T20:00:29;95990.00;;;14.10
14023;BMP180;7086;48.116;11.580;2023-01-05T20:03:02;95976.00;;;14.10
14023;BMP180;7086;48.116;11.580;2023-01-05T20:05:32;95983.00;;;14.10
14023;BMP180;7086;48.116;11.580;2023-01-05T20:08:15;95941.00;;;14.00
14023;BMP180;7086;48.116;11.580;2023-01-05T20:10:46;95983.00;;;14.10
14023;BMP180;7086;48.116;11.580;2023-01-05T20:13:14;96003.00;;;14.10
14023;BMP180;7086;48.116;11.580;2023-01-05T20:15:42;95973.00;;;14.10
14023;BMP180;7086;48.116;11.580;2023-01-05T20:18:10;95954.00;;;14.10
14023;BMP180;7086;48.116;11.580;2023-01-05T20:20:39;95967.00;;;14.10
14023;BMP180;7086;48.116;11.580;2023-01-05T20:23:09;95961.00;;;14.10
14023;BMP180;7086;48.116;11.580;2023-01-05T20:25:53;95976.00;;;14.10
14023;BMP180;7086;48.116;11.580;2023-01-05T20:28:23;95960.00;;;14.20
14023;BMP180;7086;48.116;11.580;2023-01-05T20:30:52;95967.00;;;14.20
14023;BMP180;7086;48.116;11.580;2023-01-05T20:33:20;95971.00;;;14.20
14023;BMP180;7086;48.116;11.580;2023-01-05T20:35:50;95979.00;;;14.10
14023;BMP180;7086;48.116;11.580;2023-01-05T20:38:23;95976.00;;;14.20
14023;BMP180;7086;48.116;11.580;2023-01-05T20:41:12;95973.00;;;14.20
14023;BMP180;7086;48.116;11.580;2023-01-05T20:43:43;95973.00;;;14.10
14023;BMP180;7086;48.116;11.580;2023-01-05T20:46:19;95891.00;;;14.20
14023;BMP180;7086;48.116;11.580;2023-01-05T20:48:49;95985.00;;;14.20
14023;BMP180;7086;48.116;11.580;2023-01-05T20:51:35;95967.00;;;14.20
14023;BMP180;7086;48.116;11.580;2023-01-05T20:54:06;95959.00;;;14.20
14023;BMP180;7086;48.116;11.580;2023-01-05T20:56:41;95973.00;;;14.20
14023;BMP180;7086;48.116;11.580;2023-01-05T20:59:17;95994.00;;;14.20
14023;BMP180;7086;48.116;11.580;2023-01-05T21:01:54;95896.00;;;14.20
14023;BMP180;7086;48.116;11.580;2023-01-05T21:04:32;95972.00;;;14.20
14023;BMP180;7086;48.116;11.580;2023-01-05T21:07:28;95985.00;;;14.20
14023;BMP180;7086;48.116;11.580;2023-01-05T21:09:56;95999.00;;;14.20
14023;BMP180;7086;48.116;11.580;2023-01-05T21:12:44;95975.00;;;14.30
14023;BMP180;7086;48.116;11.580;2023-01-05T21:15:27;95999.00;;;14.30
14023;BMP180;7086;48.116;11.580;2023-01-05T21:18:10;95964.00;;;14.30
14023;BMP180;7086;48.116;11.580;2023-01-05T21:23:18;95916.00;;;14.30
14023;BMP180;7086;48.116;11.580;2023-01-05T21:26:05;95996.00;;;14.30
14023;BMP180;7086;48.116;11.580;2023-01-05T21:28:47;96001.00;;;14.30
14023;BMP180;7086;48.116;11.580;2023-01-05T21:31:22;96001.00;;;14.30
14023;BMP180;7086;48.116;11.580;2023-01-05T21:33:55;95975.00;;;14.00
14023;BMP180;7086;48.116;11.580;2023-01-05T21:36:30;95939.00;;;14.30
14023;BMP180;7086;48.116;11.580;2023-01-05T21:39:26;95942.00;;;14.00
14023;BMP180;7086;48.116;11.580;2023-01-05T21:42:08;95994.00;;;14.40
14023;BMP180;7086;48.116;11.580;2023-01-05T21:44:58;96009.00;;;14.40
14023;BMP180;7086;48.116;11.580;2023-01-05T21:47:33;95993.00;;;14.40
14023;BMP180;7086;48.116;11.580;2023-01-05T21:50:10;96035.00;;;14.40
14023;BMP180;7086;48.116;11.580;2023-01-05T21:53:09;95910.00;;;14.40
14023;BMP180;7086;48.116;11.580;2023-01-05T21:56:06;95898.00;;;14.40
14023;BMP180;7086;48.116;11.580;2023-01-05T21:59:02;96019.00;;;14.40
14023;BMP180;7086;48.116;11.580;2023-01-05T22:01:44;95923.00;;;14.40
14023;BMP180;7086;48.116;11.580;2023-01-05T22:04:52;95924.00;;;14.40
14023;BMP180;7086;48.116;11.580;2023-01-05T22:07:56;95993.00;;;14.50
14023;BMP180;7086;48.116;11.580;2023-01-05T22:11:02;95949.00;;;14.40
14023;BMP180;7086;48.116;11.580;2023-01-05T22:14:11;95906.00;;;14.40
14023;BMP180;7086;48.116;11.580;2023-01-05T22:20:06;96048.00;;;14.40
14023;BMP180;7086;48.116;11.580;2023-01-05T22:23:16;96000.00;;;14.40
14023;BMP180;7086;48.116;11.580;2023-01-05T22:26:11;96000.00;;;14.40
14023;BMP180;7086;48.116;11.580;2023-01-05T22:29:14;95999.00;;;14.40
14023;BMP180;7086;48.116;11.580;2023-01-05T22:35:27;95956.00;;;14.40
14023;BMP180;7086;48.116;11.580;2023-01-05T22:38:59;95954.00;;;14.30
14023;BMP180;7086;48.116;11.580;2023-01-05T22:42:13;96005.00;;;14.40
14023;BMP180;7086;48.116;11.580;2023-01-05T22:52:00;95954.00;;;14.30
14023;BMP180;7086;48.116;11.580;2023-01-05T22:55:12;95992.00;;;14.30
14023;BMP180;7086;48.116;11.580;2023-01-05T22:58:04;95918.00;;;14.40
14023;BMP180;7086;48.116;11.580;2023-01-05T23:00:50;95941.00;;;14.40
14023;BMP180;7086;48.116;11.580;2023-01-05T23:03:47;96015.00;;;14.30
14023;BMP180;7086;48.116;11.580;2023-01-05T23:06:27;95898.00;;;14.30
14023;BMP180;7086;48.116;11.580;2023-01-05T23:09:10;96004.00;;;14.40
14023;BMP180;7086;48.116;11.580;2023-01-05T23:12:26;95988.00;;;14.40
14023;BMP180;7086;48.116;11.580;2023-01-05T23:15:33;95987.00;;;14.30
14023;BMP180;7086;48.116;11.580;2023-01-05T23:25:39;95914.00;;;14.30
14023;BMP180;7086;48.116;11.580;2023-01-05T23:28:33;95972.00;;;14.10
14023;BMP180;7086;48.116;11.580;2023-01-05T23:31:19;95975.00;;;14.30
14023;BMP180;7086;48.116;11.580;2023-01-05T23:34:06;95877.00;;;14.30
14023;BMP180;7086;48.116;11.580;2023-01-05T23:36:52;95938.00;;;14.30
14023;BMP180;7086;48.116;11.580;2023-01-05T23:39:32;96014.00;;;14.30
